sensor_id;sensor_type;location;lat;lon;timestamp;temperature;humidity
25532;DHT22;13429;48.816;9.118;2023-07-30T06:05:47;20.30;81.70
25532;DHT22;13429;48.816;9.118;2023-07-30T06:08:12;20.40;81.40
25532;DHT22;13429;48.816;9.118;2023-07-30T06:13:05;20.60;81.40
25532;DHT22;13429;48.816;9.118;2023-07-30T06:15:32;20.80;81.30
25532;DHT22;13429;48.816;9.118;2023-07-30T06:17:58;20.90;81.60
25532;DHT22;13429;48.816;9.118;2023-07-30T06:20:23;21.00;81.50
25532;DHT22;13429;48.816;9.118;2023-07-30T06:22:49;21.10;81.30
25532;DHT22;13429;48.816;9.118;2023-07-30T06:25:15;21.30;80.70
25532;DHT22;13429;48.816;9.118;2023-07-30T06:27:40;21.30;79.90
25532;DHT22;13429;48.816;9.118;2023-07-30T06:30:06;21.40;79.50
25532;DHT22;13429;48.816;9.118;2023-07-30T06:32:32;21.40;79.30
25532;DHT22;13429;48.816;9.118;2023-07-30T06:34:57;21.50;79.40
25532;DHT22;13429;48.816;9.118;2023-07-30T06:37:23;21.50;79.60
25532;DHT22;13429;48.816;9.118;2023-07-30T06:39:49;21.60;79.80
25532;DHT22;13429;48.816;9.118;2023-07-30T06:42:14;21.80;79.80
25532;DHT22;13429;48.816;9.118;2023-07-30T06:44:40;22.10;79.00
25532;DHT22;13429;48.816;9.118;2023-07-30T06:47:06;22.40;78.50
25532;DHT22;13429;48.816;9.118;2023-07-30T06:49:31;22.60;75.90
25532;DHT22;13429;48.816;9.118;2023-07-30T06:51:59;22.60;75.20
25532;DHT22;13429;48.816;9.118;2023-07-30T06:54:25;22.60;75.10
25532;DHT22;13429;48.816;9.118;2023-07-30T06:56:51;22.60;74.10
25532;DHT22;13429;48.816;9.118;2023-07-30T06:59:16;22.60;74.40
25532;DHT22;13429;48.816;9.118;2023-07-30T07:01:42;22.70;74.80
25532;DHT22;13429;48.816;9.118;2023-07-30T07:04:07;22.80;74.90
25532;DHT22;13429;48.816;9.118;2023-07-30T07:06:33;22.80;74.10
25532;DHT22;13429;48.816;9.118;2023-07-30T07:08:59;22.80;74.70
25532;DHT22;13429;48.816;9.118;2023-07-30T07:11:24;22.80;75.50
25532;DHT22;13429;48.816;9.118;2023-07-30T07:13:50;22.80;75.60
25532;DHT22;13429;48.816;9.118;2023-07-30T07:16:15;22.70;76.00
25532;DHT22;13429;48.816;9.118;2023-07-30T07:18:41;22.60;76.30
25532;DHT22;13429;48.816;9.118;2023-07-30T07:21:07;22.50;75.70
25532;DHT22;13429;48.816;9.118;2023-07-30T07:23:33;22.30;75.20
25532;DHT22;13429;48.816;9.118;2023-07-30T07:25:59;22.10;75.20
25532;DHT22;13429;48.816;9.118;2023-07-30T07:28:25;22.00;75.50
25532;DHT22;13429;48.816;9.118;2023-07-30T07:30:50;21.90;75.20
25532;DHT22;13429;48.816;9.118;2023-07-30T07:33:16;21.80;76.10
25532;DHT22;13429;48.816;9.118;2023-07-30T07:40:40;21.30;77.90
25532;DHT22;13429;48.816;9.118;2023-07-30T07:43:07;21.10;77.60
25532;DHT22;13429;48.816;9.118;2023-07-30T07:47:58;20.90;76.50
25532;DHT22;13429;48.816;9.118;2023-07-30T07:50:24;21.10;76.00
25532;DHT22;13429;48.816;9.118;2023-07-30T07:57:42;20.80;77.40
25532;DHT22;13429;48.816;9.118;2023-07-30T08:00:08;21.00;77.60
25532;DHT22;13429;48.816;9.118;2023-07-30T08:02:34;21.20;77.30
25532;DHT22;13429;48.816;9.118;2023-07-30T08:05:00;21.40;77.00
25532;DHT22;13429;48.816;9.118;2023-07-30T08:07:26;21.60;76.50
25532;DHT22;13429;48.816;9.118;2023-07-30T08:09:51;21.60;76.50
25532;DHT22;13429;48.816;9.118;2023-07-30T08:12:19;21.80;76.20
25532;DHT22;13429;48.816;9.118;2023-07-30T08:14:44;22.00;76.60
25532;DHT22;13429;48.816;9.118;2023-07-30T08:17:10;22.00;74.70
25532;DHT22;13429;48.816;9.118;2023-07-30T08:19:36;22.10;75.00
25532;DHT22;13429;48.816;9.118;2023-07-30T08:22:01;22.10;74.60
25532;DHT22;13429;48.816;9.118;2023-07-30T08:24:27;22.00;74.20
25532;DHT22;13429;48.816;9.118;2023-07-30T08:26:52;22.00;73.90
25532;DHT22;13429;48.816;9.118;2023-07-30T08:29:18;22.20;73.30
